Time;durP1;ratioP1;P1;durP2;ratioP2;P2;SDS_P1;SDS_P2;PMS_P1;PMS_P2;Temp;Humidity;BMP_temperature;BMP_pressure;BME280_temperature;BME280_humidity;BME280_pressure;Samples;Min_cycle;Max_cycle;Signal;HPM_P1;HPM_P2
2023/08/12 00:01:58;;;;;;;12.13;7.63;;;24.70;73.60;;;;;;5017846;28;20021;-82
2023/08/12 00:04:24;;;;;;;7.90;6.97;;;24.60;73.80;;;;;;5016390;28;20026;-82
2023/08/12 00:06:50;;;;;;;15.13;7.13;;;24.60;73.70;;;;;;5016518;28;20037;-82
2023/08/12 00:09:16;;;;;;;10.20;7.43;;;24.50;73.80;;;;;;5015781;28;20028;-82
2023/08/12 00:11:42;;;;;;;7.67;6.87;;;24.50;73.90;;;;;;5016657;28;20045;-82
2023/08/12 00:14:08;;;;;;;11.10;7.50;;;24.50;73.70;;;;;;5000049;28;20033;-82
2023/08/12 00:16:33;;;;;;;17.40;8.33;;;24.50;73.70;;;;;;5000826;28;20041;-82
2023/08/12 00:19:00;;;;;;;10.07;7.90;;;24.40;73.90;;;;;;5015904;28;20030;-82
2023/08/12 00:21:26;;;;;;;9.68;7.50;;;24.40;74.00;;;;;;5017400;28;20038;-82
2023/08/12 00:23:52;;;;;;;9.43;7.83;;;24.30;73.80;;;;;;5016489;28;20400;-82
2023/08/12 00:26:17;;;;;;;8.83;7.63;;;24.30;73.70;;;;;;5016656;28;20522;-82
2023/08/12 00:28:43;;;;;;;9.07;8.23;;;24.30;73.90;;;;;;5015719;28;20045;-82
2023/08/12 00:31:09;;;;;;;9.60;7.80;;;24.30;74.00;;;;;;5016051;28;20034;-82
2023/08/12 00:33:35;;;;;;;9.70;7.10;;;24.20;74.10;;;;;;5017725;28;20080;-82
2023/08/12 00:36:01;;;;;;;9.50;7.33;;;24.20;74.20;;;;;;5015881;28;20456;-82
2023/08/12 00:38:28;;;;;;;10.85;8.00;;;24.10;74.30;;;;;;5016040;28;20022;-82
2023/08/12 00:40:54;;;;;;;;;;;24.10;74.20;;;;;;5015724;28;20030;-82
2023/08/12 00:43:20;;;;;;;7.90;7.10;;;24.10;74.40;;;;;;5015602;28;19909;-82
2023/08/12 00:45:46;;;;;;;7.33;6.63;;;24.00;74.70;;;;;;4998939;28;20026;-83
2023/08/12 00:48:12;;;;;;;8.10;7.20;;;24.00;75.10;;;;;;5017038;28;20060;-82
2023/08/12 00:50:40;;;;;;;8.15;6.88;;;23.90;75.10;;;;;;5015540;28;20060;-82
2023/08/12 00:53:06;;;;;;;10.70;6.75;;;23.90;75.20;;;;;;5015866;28;20038;-82
2023/08/12 00:55:34;;;;;;;8.00;7.00;;;23.90;74.90;;;;;;5016502;28;20030;-84
2023/08/12 00:58:00;;;;;;;8.55;5.72;;;23.90;74.70;;;;;;5016105;28;20041;-82
2023/08/12 01:00:26;;;;;;;8.00;6.32;;;23.90;74.60;;;;;;5017695;28;20022;-82
2023/08/12 01:02:53;;;;;;;10.40;6.43;;;23.90;74.60;;;;;;5021135;28;20089;-81
2023/08/12 01:05:20;;;;;;;7.53;6.28;;;23.90;74.40;;;;;;5001196;28;20045;-82
2023/08/12 01:07:46;;;;;;;7.13;6.43;;;23.90;74.50;;;;;;5017163;28;20030;-82
2023/08/12 01:10:16;;;;;;;10.85;6.55;;;23.90;74.50;;;;;;5018019;28;20038;-82
2023/08/12 01:13:18;;;;;;;7.28;6.57;;;23.80;74.50;;;;;;5017886;28;20061;-82
2023/08/12 01:15:44;;;;;;;6.40;5.80;;;23.80;74.20;;;;;;4996930;28;20065;-83
2023/08/12 01:18:11;;;;;;;7.05;5.60;;;23.80;74.80;;;;;;5019191;28;20075;-82
2023/08/12 01:20:38;;;;;;;7.35;6.65;;;23.80;74.60;;;;;;5020573;28;20427;-82
2023/08/12 01:23:15;;;;;;;10.45;6.65;;;23.70;74.60;;;;;;5002450;28;20570;-82
2023/08/12 01:25:41;;;;;;;9.70;6.85;;;23.70;74.20;;;;;;5019713;28;20034;-82
2023/08/12 01:28:08;;;;;;;7.00;6.30;;;23.70;74.60;;;;;;5002568;28;20057;-82
2023/08/12 01:30:39;;;;;;;10.60;7.30;;;23.60;74.70;;;;;;5002333;28;20038;-82
2023/08/12 01:33:14;;;;;;;8.77;7.63;;;23.60;74.60;;;;;;5018411;28;20117;-82
2023/08/12 01:35:47;;;;;;;10.27;7.28;;;23.60;75.10;;;;;;5017787;28;20030;-82
2023/08/12 01:38:16;;;;;;;10.52;7.82;;;23.60;75.10;;;;;;5017051;28;20041;-82
2023/08/12 01:40:44;;;;;;;13.95;7.55;;;23.60;75.00;;;;;;5001936;28;20144;-82
2023/08/12 01:43:10;;;;;;;12.23;7.65;;;23.60;75.10;;;;;;5017752;28;20030;-82
2023/08/12 01:45:36;;;;;;;8.70;6.90;;;23.50;75.00;;;;;;5018287;28;20045;-81
2023/08/12 01:48:02;;;;;;;9.37;7.80;;;23.50;75.70;;;;;;5002012;28;20038;-82
2023/08/12 01:50:28;;;;;;;10.43;7.40;;;23.50;75.20;;;;;;5018212;28;20053;-82
2023/08/12 01:52:54;;;;;;;13.40;7.53;;;23.50;75.40;;;;;;5018495;28;20030;-82
2023/08/12 01:55:20;;;;;;;8.23;7.40;;;23.40;75.40;;;;;;5020304;28;20064;-82
2023/08/12 01:57:46;;;;;;;10.40;7.50;;;23.40;75.40;;;;;;5017879;28;20076;-82
2023/08/12 02:00:12;;;;;;;8.90;8.07;;;23.40;75.50;;;;;;5018028;28;20065;-82
2023/08/12 02:02:47;;;;;;;9.70;6.85;;;23.30;75.30;;;;;;5020704;28;20100;-82
2023/08/12 02:05:14;;;;;;;11.32;7.93;;;23.30;75.30;;;;;;5019941;28;20087;-82
2023/08/12 02:07:40;;;;;;;8.07;7.10;;;23.30;75.20;;;;;;5001677;28;20030;-82
2023/08/12 02:10:06;;;;;;;8.13;6.43;;;23.30;75.00;;;;;;5019626;28;20030;-82
2023/08/12 02:12:32;;;;;;;10.18;7.60;;;23.30;74.70;;;;;;5018150;28;20026;-82
2023/08/12 02:14:57;;;;;;;7.27;6.43;;;23.30;74.80;;;;;;5016880;28;20403;-82
2023/08/12 02:17:23;;;;;;;8.97;6.83;;;23.20;74.60;;;;;;5016885;28;20053;-82
2023/08/12 02:19:51;;;;;;;6.88;6.18;;;23.30;74.70;;;;;;5016577;28;20033;-82
2023/08/12 02:22:17;;;;;;;7.77;7.00;;;23.20;74.60;;;;;;5015326;28;20098;-82
2023/08/12 02:24:43;;;;;;;7.70;6.90;;;23.20;74.60;;;;;;5018103;28;20050;-82
2023/08/12 02:27:09;;;;;;;7.00;6.30;;;23.20;74.70;;;;;;5017094;28;20132;-82
2023/08/12 02:29:34;;;;;;;11.27;7.13;;;23.20;74.60;;;;;;5016498;28;20033;-82
2023/08/12 02:32:00;;;;;;;7.33;6.57;;;23.20;74.50;;;;;;5016975;28;20037;-82
2023/08/12 02:34:26;;;;;;;6.97;6.27;;;23.20;74.50;;;;;;5015790;28;20022;-82
2023/08/12 02:36:52;;;;;;;9.50;6.43;;;23.20;74.30;;;;;;5017031;28;20030;-81
2023/08/12 02:39:18;;;;;;;7.82;6.97;;;23.20;74.10;;;;;;5014805;28;20460;-82
2023/08/12 02:41:44;;;;;;;15.20;8.07;;;23.20;74.20;;;;;;5014209;28;20554;-81
2023/08/12 02:44:10;;;;;;;12.23;6.47;;;23.20;74.10;;;;;;5015644;28;20042;-82
2023/08/12 02:46:36;;;;;;;12.23;7.87;;;23.20;74.00;;;;;;5014574;28;20030;-81
2023/08/12 02:49:02;;;;;;;8.63;6.17;;;23.10;73.70;;;;;;4997960;28;20081;-82
2023/08/12 02:51:27;;;;;;;7.73;5.90;;;23.10;73.80;;;;;;5018099;28;20030;-82
2023/08/12 02:53:53;;;;;;;11.83;6.17;;;23.10;73.70;;;;;;5019306;28;20461;-82
2023/08/12 02:56:19;;;;;;;9.03;6.70;;;23.10;74.20;;;;;;5020342;28;20229;-82
2023/08/12 02:58:45;;;;;;;11.97;7.07;;;23.10;74.30;;;;;;5018822;28;20492;-82
2023/08/12 03:01:11;;;;;;;8.23;7.43;;;23.00;74.30;;;;;;5020571;28;20026;-81
2023/08/12 03:03:37;;;;;;;7.20;6.50;;;23.00;74.10;;;;;;5020926;28;20439;-82
2023/08/12 03:06:02;;;;;;;7.93;6.37;;;23.00;74.10;;;;;;5019522;28;20404;-82
2023/08/12 03:08:29;;;;;;;11.35;6.90;;;23.00;74.20;;;;;;5019700;28;20037;-82
2023/08/12 03:11:00;;;;;;;8.75;6.38;;;23.00;74.10;;;;;;5020454;28;20034;-83
2023/08/12 03:13:27;;;;;;;7.32;6.60;;;23.00;73.90;;;;;;5020532;28;20108;-82
2023/08/12 03:15:53;;;;;;;6.93;6.32;;;23.00;74.30;;;;;;5019837;28;20026;-82
2023/08/12 03:18:19;;;;;;;12.43;6.83;;;23.00;74.30;;;;;;5019889;28;20492;-82
2023/08/12 03:20:45;;;;;;;15.63;7.17;;;22.90;74.10;;;;;;5020742;28;20534;-82
2023/08/12 03:23:11;;;;;;;8.40;7.13;;;22.90;74.40;;;;;;5019639;28;20030;-82
2023/08/12 03:25:37;;;;;;;8.77;6.75;;;22.90;74.60;;;;;;5020525;28;20496;-82
2023/08/12 03:28:04;;;;;;;8.30;7.50;;;22.90;74.50;;;;;;5020342;28;20037;-81
2023/08/12 03:30:30;;;;;;;7.20;6.50;;;22.90;74.70;;;;;;5021342;28;20408;-82
2023/08/12 03:32:56;;;;;;;7.50;6.13;;;22.90;74.40;;;;;;5004694;28;20396;-82
2023/08/12 03:35:24;;;;;;;7.82;6.32;;;22.90;74.50;;;;;;5004034;28;20054;-82
2023/08/12 03:37:52;;;;;;;7.68;6.10;;;22.90;74.40;;;;;;5003965;28;20049;-82
2023/08/12 03:40:18;;;;;;;7.00;6.35;;;22.80;74.50;;;;;;5003496;28;20029;-82
2023/08/12 03:42:44;;;;;;;7.22;6.55;;;22.80;74.60;;;;;;5021137;28;20495;-83
2023/08/12 03:45:10;;;;;;;7.47;6.73;;;22.80;74.50;;;;;;5021515;28;20117;-83
2023/08/12 03:47:36;;;;;;;10.60;7.13;;;22.70;74.90;;;;;;5021473;28;20034;-83
2023/08/12 03:50:03;;;;;;;6.93;6.32;;;22.70;75.00;;;;;;5003661;28;20840;-84
2023/08/12 03:52:31;;;;;;;14.15;6.57;;;22.70;75.20;;;;;;5018019;28;20454;-83
2023/08/12 03:55:00;;;;;;;7.78;6.88;;;22.60;75.20;;;;;;5000552;28;20034;-82
2023/08/12 03:57:26;;;;;;;11.32;6.82;;;22.60;74.80;;;;;;5017832;28;20030;-82
2023/08/12 03:59:52;;;;;;;8.87;7.10;;;22.60;74.80;;;;;;5016647;28;20029;-83
2023/08/12 04:02:18;;;;;;;14.13;6.90;;;22.60;74.70;;;;;;4999261;28;20081;-82
2023/08/12 04:04:44;;;;;;;8.13;6.80;;;22.60;74.80;;;;;;5013302;23;20022;-81
2023/08/12 04:07:10;;;;;;;10.60;7.03;;;22.60;74.70;;;;;;4977991;28;20038;-84
2023/08/12 04:09:36;;;;;;;9.17;6.83;;;22.60;74.90;;;;;;4974258;28;20498;-81
2023/08/12 04:12:03;;;;;;;9.50;6.75;;;22.60;74.90;;;;;;4962183;28;20480;-83
2023/08/12 04:14:30;;;;;;;7.28;5.88;;;22.60;75.00;;;;;;4995536;28;20035;-83
2023/08/12 04:16:56;;;;;;;9.70;6.88;;;22.60;75.20;;;;;;4961821;28;20488;-81
2023/08/12 04:19:22;;;;;;;8.77;6.07;;;22.50;75.30;;;;;;4978141;28;20030;-82
2023/08/12 04:21:48;;;;;;;9.87;7.83;;;22.50;75.40;;;;;;4977618;28;20030;-82
2023/08/12 04:24:13;;;;;;;8.77;6.40;;;22.50;75.60;;;;;;4977368;28;20035;-80
2023/08/12 04:26:40;;;;;;;10.53;7.50;;;22.50;75.80;;;;;;4977249;28;20045;-84
2023/08/12 04:29:06;;;;;;;11.40;6.95;;;22.50;75.80;;;;;;4961292;28;20089;-86
2023/08/12 04:31:34;;;;;;;10.75;6.93;;;22.40;75.40;;;;;;4977183;28;20065;-82
2023/08/12 04:34:03;;;;;;;8.80;7.45;;;22.50;75.40;;;;;;4961768;28;20113;-82
2023/08/12 04:36:30;;;;;;;8.77;6.80;;;22.40;75.60;;;;;;4977334;28;20065;-81
2023/08/12 04:38:57;;;;;;;10.13;7.28;;;22.50;75.50;;;;;;4960663;28;20110;-81
2023/08/12 04:41:24;;;;;;;7.67;6.97;;;22.50;75.20;;;;;;4957803;28;20034;-81
2023/08/12 04:43:51;;;;;;;8.55;6.45;;;22.50;74.80;;;;;;4942313;28;20173;-83
2023/08/12 04:46:17;;;;;;;9.70;7.60;;;22.50;74.80;;;;;;4957691;28;20038;-81
2023/08/12 04:48:45;;;;;;;9.68;6.75;;;22.50;74.90;;;;;;4941836;28;20117;-81
2023/08/12 04:51:11;;;;;;;7.28;6.53;;;22.50;74.70;;;;;;4957527;28;20104;-83
2023/08/12 04:53:37;;;;;;;7.45;6.68;;;22.50;74.50;;;;;;4957422;28;20533;-83
2023/08/12 04:56:03;;;;;;;7.53;6.50;;;22.60;74.40;;;;;;4941466;28;20033;-83
2023/08/12 04:58:30;;;;;;;9.30;6.65;;;22.60;74.70;;;;;;4941636;28;20085;-82
2023/08/12 05:00:57;;;;;;;9.20;6.70;;;22.60;75.00;;;;;;4964776;28;20038;-83
2023/08/12 05:03:23;;;;;;;6.85;6.22;;;22.70;75.10;;;;;;4976638;28;20089;-82
2023/08/12 05:05:52;;;;;;;9.13;7.13;;;22.70;74.70;;;;;;4976436;28;20069;-84
2023/08/12 05:08:19;;;;;;;11.05;7.40;;;22.70;74.70;;;;;;4976370;28;20479;-83
2023/08/12 05:10:49;;;;;;;10.63;6.80;;;22.70;74.70;;;;;;4976721;28;20038;-83
2023/08/12 05:13:15;;;;;;;10.55;6.10;;;22.80;74.10;;;;;;4976503;28;20069;-83
2023/08/12 05:15:44;;;;;;;11.70;6.68;;;22.80;74.30;;;;;;4977252;28;20037;-84
2023/08/12 05:18:10;;;;;;;9.38;6.70;;;22.80;74.30;;;;;;4994805;28;20038;-83
2023/08/12 05:20:36;;;;;;;8.05;6.32;;;22.90;74.50;;;;;;4977180;28;20037;-82
2023/08/12 05:23:02;;;;;;;7.57;6.27;;;22.90;74.70;;;;;;4976587;28;20034;-82
2023/08/12 05:25:28;;;;;;;7.43;6.67;;;22.90;75.60;;;;;;4976456;28;20088;-82
2023/08/12 05:27:54;;;;;;;7.37;6.67;;;23.00;75.20;;;;;;4993811;28;20034;-82
2023/08/12 05:30:20;;;;;;;6.87;6.00;;;23.00;75.30;;;;;;4994224;28;20030;-80
2023/08/12 05:32:45;;;;;;;9.70;7.50;;;23.00;75.30;;;;;;4978754;28;20030;-79
2023/08/12 05:35:11;;;;;;;10.07;7.40;;;23.10;75.10;;;;;;4995054;28;20046;-82
2023/08/12 05:37:37;;;;;;;8.17;7.37;;;23.10;75.30;;;;;;4973843;28;20027;-82
2023/08/12 05:40:07;;;;;;;10.17;6.77;;;23.20;75.30;;;;;;4977512;28;20038;-81
2023/08/12 05:42:34;;;;;;;8.02;6.93;;;23.20;75.40;;;;;;4997742;28;20034;-81
2023/08/12 05:45:00;;;;;;;8.45;6.03;;;23.30;75.50;;;;;;4998578;28;20039;-82
2023/08/12 05:47:25;;;;;;;8.60;5.97;;;23.30;75.60;;;;;;4982384;28;20034;-82
2023/08/12 05:49:51;;;;;;;7.27;6.57;;;23.40;75.70;;;;;;4999332;28;20519;-81
2023/08/12 05:52:17;;;;;;;8.63;6.60;;;23.40;76.00;;;;;;4964333;28;20504;-83
2023/08/12 05:54:43;;;;;;;18.70;6.40;;;23.50;76.50;;;;;;4978896;28;20065;-85
2023/08/12 05:57:08;;;;;;;9.82;6.30;;;23.50;77.10;;;;;;4963832;28;20080;-82
2023/08/12 05:59:34;;;;;;;9.75;6.43;;;23.60;77.00;;;;;;4994859;28;20053;-82
2023/08/12 06:02:00;;;;;;;10.47;6.70;;;23.60;77.20;;;;;;4975859;28;20034;-82
2023/08/12 06:04:26;;;;;;;7.50;6.80;;;23.60;77.40;;;;;;4975987;28;20038;-82
2023/08/12 06:06:52;;;;;;;8.67;6.80;;;23.70;77.40;;;;;;4992923;28;20038;-84
2023/08/12 06:09:18;;;;;;;9.68;6.10;;;23.80;77.60;;;;;;4974399;28;20030;-83
2023/08/12 06:11:44;;;;;;;6.53;5.80;;;23.90;78.00;;;;;;4963122;28;20054;-82
2023/08/12 06:14:09;;;;;;;9.30;5.80;;;23.90;78.20;;;;;;4969676;28;20081;-81
2023/08/12 06:16:35;;;;;;;6.90;5.83;;;23.90;78.30;;;;;;4984685;28;20023;-83
2023/08/12 06:19:01;;;;;;;9.50;5.90;;;24.00;77.90;;;;;;4962108;28;20030;-82
2023/08/12 06:21:27;;;;;;;11.37;5.77;;;24.10;78.00;;;;;;4951236;28;20038;-82
2023/08/12 06:23:53;;;;;;;10.47;6.03;;;24.10;78.10;;;;;;4966557;28;20034;-82
2023/08/12 06:26:18;;;;;;;13.17;6.43;;;24.20;77.80;;;;;;4949735;28;20105;-81
2023/08/12 06:28:44;;;;;;;14.97;6.50;;;24.20;77.50;;;;;;4965206;28;20085;-81
2023/08/12 06:31:10;;;;;;;8.47;5.20;;;24.30;78.00;;;;;;4979459;28;20037;-84
2023/08/12 06:33:36;;;;;;;9.77;5.53;;;24.40;77.40;;;;;;4978833;28;20102;-81
2023/08/12 06:36:02;;;;;;;8.00;5.37;;;24.40;77.10;;;;;;4980456;28;20081;-80
2023/08/12 06:38:28;;;;;;;14.07;5.93;;;24.50;76.80;;;;;;4955884;28;20034;-80
2023/08/12 06:40:54;;;;;;;8.13;4.87;;;24.50;76.00;;;;;;4973778;28;20278;-81
2023/08/12 06:43:20;;;;;;;8.10;6.15;;;24.60;76.20;;;;;;4972689;28;20023;-81
2023/08/12 06:45:46;;;;;;;15.97;5.60;;;24.70;76.00;;;;;;4955124;28;20054;-81
2023/08/12 06:48:12;;;;;;;5.00;4.50;;;24.70;75.40;;;;;;4955017;28;20556;-81
2023/08/12 06:50:38;;;;;;;8.90;4.47;;;24.80;74.70;;;;;;4972827;28;20026;-80
2023/08/12 06:53:04;;;;;;;5.67;4.13;;;24.90;73.40;;;;;;4972986;28;20113;-80
2023/08/12 06:55:30;;;;;;;9.47;4.70;;;24.90;73.40;;;;;;4972679;28;20037;-80
2023/08/12 06:57:55;;;;;;;9.47;4.37;;;25.00;73.00;;;;;;4972671;28;20066;-80
2023/08/12 07:00:21;;;;;;;4.87;3.80;;;25.00;72.20;;;;;;4955297;28;20034;-80
2023/08/12 07:02:47;;;;;;;9.87;4.03;;;25.10;72.00;;;;;;4955531;28;20409;-80
2023/08/12 07:05:13;;;;;;;8.03;4.07;;;25.10;71.50;;;;;;4939260;28;20035;-80
2023/08/12 07:07:39;;;;;;;4.90;4.00;;;25.20;70.30;;;;;;4955233;28;20473;-80
2023/08/12 07:10:06;;;;;;;7.10;3.53;;;25.20;69.40;;;;;;4939341;28;20039;-80
2023/08/12 07:12:32;;;;;;;;;;;25.30;69.80;;;;;;4955666;28;20493;-80
2023/08/12 07:14:58;;;;;;;8.27;4.35;;;25.30;70.10;;;;;;4972743;28;20388;-80
2023/08/12 07:17:24;;;;;;;5.28;3.25;;;25.30;69.80;;;;;;4972556;28;20573;-80
2023/08/12 07:19:50;;;;;;;8.93;3.97;;;25.40;69.70;;;;;;4972558;28;20157;-80
2023/08/12 07:22:19;;;;;;;6.83;3.30;;;25.40;69.40;;;;;;4955189;28;20053;-80
2023/08/12 07:24:45;;;;;;;6.95;3.58;;;25.50;68.90;;;;;;4972401;28;20106;-81
2023/08/12 07:27:11;;;;;;;5.53;3.63;;;25.60;68.20;;;;;;4972286;28;20086;-81
2023/08/12 07:29:36;;;;;;;6.03;3.93;;;25.70;67.40;;;;;;4972697;28;20058;-81
2023/08/12 07:32:02;;;;;;;8.87;4.90;;;25.70;66.80;;;;;;4957691;28;20489;-81
2023/08/12 07:34:28;;;;;;;6.85;3.50;;;25.70;66.80;;;;;;4958458;28;20468;-80
2023/08/12 07:36:54;;;;;;;8.13;4.20;;;25.70;66.80;;;;;;4978839;28;20479;-81
2023/08/12 07:39:20;;;;;;;5.50;4.23;;;25.80;66.70;;;;;;4979542;28;20034;-80
2023/08/12 07:41:46;;;;;;;6.30;3.13;;;25.80;66.10;;;;;;4979700;28;20034;-80
2023/08/12 07:44:13;;;;;;;8.53;3.90;;;25.90;66.00;;;;;;4979478;28;20122;-80
2023/08/12 07:46:38;;;;;;;7.75;3.38;;;25.90;66.40;;;;;;4961733;28;20117;-81
2023/08/12 07:49:04;;;;;;;3.70;3.13;;;26.00;66.60;;;;;;4962170;28;20066;-81
2023/08/12 07:51:30;;;;;;;5.00;3.13;;;26.00;66.40;;;;;;4980065;28;20035;-81
2023/08/12 07:53:56;;;;;;;4.50;3.97;;;26.10;65.40;;;;;;4979347;28;20058;-80
2023/08/12 07:56:22;;;;;;;5.60;3.63;;;26.10;65.20;;;;;;4978745;28;20076;-80
2023/08/12 07:58:48;;;;;;;9.87;4.13;;;26.10;66.40;;;;;;4978935;28;20485;-80
2023/08/12 08:01:14;;;;;;;9.13;3.33;;;26.20;65.80;;;;;;4961931;28;20042;-80
2023/08/12 08:03:39;;;;;;;5.00;3.77;;;26.20;65.90;;;;;;4961455;28;20042;-80
2023/08/12 08:06:05;;;;;;;6.80;3.50;;;26.20;65.00;;;;;;4979319;28;20089;-80
2023/08/12 08:08:31;;;;;;;4.97;3.70;;;26.30;65.50;;;;;;4979129;28;20038;-81
2023/08/12 08:10:57;;;;;;;4.53;3.10;;;26.40;64.90;;;;;;4978975;28;20059;-81
2023/08/12 08:13:23;;;;;;;6.17;3.37;;;26.50;64.10;;;;;;4979150;28;20019;-81
2023/08/12 08:15:49;;;;;;;5.33;2.63;;;26.50;63.90;;;;;;4961602;28;20485;-81
2023/08/12 08:18:14;;;;;;;9.43;3.47;;;26.60;63.00;;;;;;4961495;28;20536;-80
2023/08/12 08:20:42;;;;;;;4.93;3.00;;;26.60;63.10;;;;;;4979198;28;20058;-80
2023/08/12 08:23:08;;;;;;;4.00;3.00;;;26.70;62.40;;;;;;4978936;28;20150;-81
2023/08/12 08:25:34;;;;;;;4.37;2.77;;;26.70;62.30;;;;;;4978795;28;20513;-81
2023/08/12 08:28:00;;;;;;;4.50;2.67;;;26.70;63.00;;;;;;4977907;28;20042;-80
2023/08/12 08:30:26;;;;;;;5.63;2.73;;;26.80;62.60;;;;;;4961140;28;20030;-81
2023/08/12 08:32:52;;;;;;;9.07;3.40;;;26.80;62.90;;;;;;4979002;28;20054;-81
2023/08/12 08:35:18;;;;;;;4.10;2.88;;;26.80;62.40;;;;;;4960988;28;20086;-81
2023/08/12 08:37:43;;;;;;;4.77;2.50;;;26.90;62.00;;;;;;4978462;28;20023;-81
2023/08/12 08:40:10;;;;;;;19.90;3.13;;;27.00;61.90;;;;;;4961598;28;20398;-81
2023/08/12 08:42:37;;;;;;;9.65;3.25;;;27.10;62.10;;;;;;4978768;28;20078;-83
2023/08/12 08:45:07;;;;;;;;;;;27.20;61.70;;;;;;4978805;28;20110;-82
2023/08/12 08:47:33;;;;;;;6.80;2.53;;;27.30;61.50;;;;;;4960676;28;19917;-81
2023/08/12 08:50:00;;;;;;;4.70;2.80;;;27.30;60.60;;;;;;4978963;28;20039;-81
2023/08/12 08:52:26;;;;;;;2.83;2.40;;;27.40;60.20;;;;;;4960395;28;20022;-81
2023/08/12 08:54:52;;;;;;;3.17;2.42;;;27.40;60.40;;;;;;4978667;28;20023;-81
2023/08/12 08:57:19;;;;;;;;;;;27.50;60.50;;;;;;4978444;28;20106;-81
2023/08/12 08:59:45;;;;;;;6.10;2.47;;;27.60;60.40;;;;;;4978508;28;19948;-81
2023/08/12 09:02:17;;;;;;;3.45;2.03;;;27.60;59.50;;;;;;4978892;28;20035;-81
2023/08/12 09:04:44;;;;;;;3.13;2.15;;;27.70;58.20;;;;;;4977716;28;20047;-81
2023/08/12 09:07:11;;;;;;;5.43;1.77;;;27.70;58.50;;;;;;4978214;28;20031;-82
2023/08/12 09:09:41;;;;;;;5.22;2.33;;;27.80;57.50;;;;;;4961545;28;20123;-81
2023/08/12 09:12:08;;;;;;;2.30;1.98;;;27.90;57.10;;;;;;4978422;28;20034;-81
2023/08/12 09:14:34;;;;;;;;;;;28.00;57.70;;;;;;4961018;28;20094;-81
2023/08/12 09:17:00;;;;;;;5.38;2.22;;;28.10;56.60;;;;;;4977945;28;19972;-81
2023/08/12 09:19:26;;;;;;;7.30;2.40;;;28.10;56.80;;;;;;4959958;28;20572;-81
2023/08/12 09:21:53;;;;;;;3.53;1.90;;;28.10;57.10;;;;;;4960563;28;20117;-81
2023/08/12 09:24:24;;;;;;;2.58;2.38;;;28.20;57.20;;;;;;4960153;28;20104;-81
2023/08/12 09:26:55;;;;;;;7.10;2.22;;;28.40;57.10;;;;;;4960916;28;20043;-81
2023/08/12 09:29:31;;;;;;;3.90;2.33;;;28.50;57.30;;;;;;4960284;28;20031;-81
2023/08/12 09:32:28;;;;;;;5.60;2.63;;;28.50;57.50;;;;;;4960811;28;20090;-81
2023/08/12 09:34:54;;;;;;;4.78;2.67;;;28.60;56.60;;;;;;4970098;28;20109;-81
2023/08/12 09:37:23;;;;;;;8.15;2.88;;;28.60;57.50;;;;;;4960796;28;20040;-81
2023/08/12 09:39:51;;;;;;;6.72;2.53;;;28.60;57.60;;;;;;4944540;28;20027;-81
2023/08/12 09:42:17;;;;;;;4.35;2.42;;;28.60;56.90;;;;;;4977880;28;20118;-81
2023/08/12 09:44:44;;;;;;;2.53;2.25;;;28.70;58.20;;;;;;4944416;28;20592;-81
2023/08/12 09:47:10;;;;;;;6.57;2.80;;;28.80;58.00;;;;;;4960440;28;20104;-82
2023/08/12 09:49:37;;;;;;;5.00;2.72;;;28.90;57.70;;;;;;4978073;28;20023;-81
2023/08/12 09:52:04;;;;;;;6.00;2.55;;;29.00;57.40;;;;;;4977775;28;20027;-81
2023/08/12 09:54:34;;;;;;;7.03;2.53;;;28.90;56.90;;;;;;4960536;28;20106;-81
2023/08/12 09:57:02;;;;;;;5.07;3.03;;;29.00;57.30;;;;;;4977694;28;20065;-81
2023/08/12 09:59:35;;;;;;;4.40;2.55;;;29.10;56.90;;;;;;4978076;28;20027;-81
2023/08/12 10:02:04;;;;;;;3.78;2.30;;;29.10;57.40;;;;;;4959890;28;20062;-81
2023/08/12 10:04:45;;;;;;;4.88;2.65;;;29.10;56.90;;;;;;4943905;28;20030;-81
2023/08/12 10:07:14;;;;;;;3.00;2.25;;;29.10;57.30;;;;;;4968711;28;20057;-80
2023/08/12 10:09:41;;;;;;;6.80;2.58;;;29.20;56.70;;;;;;4986622;28;20042;-79
2023/08/12 10:12:08;;;;;;;4.40;2.58;;;29.30;56.60;;;;;;4986964;28;20401;-79
2023/08/12 10:14:35;;;;;;;5.05;2.60;;;29.40;56.50;;;;;;4985897;28;20033;-79
2023/08/12 10:17:02;;;;;;;2.75;1.98;;;29.40;55.70;;;;;;4986453;28;20059;-79
2023/08/12 10:19:29;;;;;;;3.58;2.53;;;29.50;56.30;;;;;;4967299;28;20022;-79
2023/08/12 10:21:57;;;;;;;;;;;29.50;55.80;;;;;;4952128;28;20034;-79
2023/08/12 10:24:24;;;;;;;12.80;2.97;;;29.40;56.70;;;;;;4986293;28;19910;-79
2023/08/12 10:26:52;;;;;;;2.13;1.90;;;29.50;57.60;;;;;;4968161;28;20386;-79
2023/08/12 10:29:19;;;;;;;6.07;2.60;;;29.60;56.60;;;;;;4950731;28;20035;-79
2023/08/12 10:31:46;;;;;;;;;;;29.70;56.30;;;;;;4985714;28;20178;-80
2023/08/12 10:34:20;;;;;;;3.67;2.08;;;29.70;56.40;;;;;;4984694;28;19918;-80
2023/08/12 10:36:46;;;;;;;4.45;2.40;;;29.70;56.60;;;;;;4985093;28;20095;-80
2023/08/12 10:39:14;;;;;;;3.33;2.22;;;29.80;55.20;;;;;;4985444;28;20029;-80
2023/08/12 10:41:52;;;;;;;3.83;2.40;;;29.80;56.20;;;;;;4988129;28;20037;-80
2023/08/12 10:44:20;;;;;;;2.95;2.58;;;30.00;56.40;;;;;;4986486;28;20053;-80
2023/08/12 10:46:53;;;;;;;6.78;1.98;;;30.10;55.10;;;;;;4985188;28;20085;-80
2023/08/12 10:49:23;;;;;;;3.72;2.53;;;30.00;56.00;;;;;;4966375;28;20039;-82
2023/08/12 10:51:54;;;;;;;5.03;2.10;;;30.10;55.70;;;;;;4985944;28;20043;-81
2023/08/12 10:54:26;;;;;;;4.55;2.20;;;30.20;55.90;;;;;;4951866;28;20035;-81
2023/08/12 10:57:05;;;;;;;2.70;1.95;;;30.40;55.70;;;;;;4958241;28;20039;-79
2023/08/12 10:59:46;;;;;;;5.53;2.67;;;30.40;54.90;;;;;;4957885;28;20043;-80
2023/08/12 11:02:21;;;;;;;5.80;2.55;;;30.40;55.10;;;;;;4956898;28;20027;-80
2023/08/12 11:05:02;;;;;;;2.55;2.20;;;30.40;55.00;;;;;;4973329;28;20033;-81
2023/08/12 11:07:55;;;;;;;6.28;2.47;;;30.40;54.40;;;;;;4957097;28;20418;-80
2023/08/12 11:10:26;;;;;;;6.35;2.20;;;30.40;55.30;;;;;;4973066;28;20038;-80
2023/08/12 11:12:51;;;;;;;5.80;2.40;;;30.50;56.10;;;;;;4977051;28;20031;-80
2023/08/12 11:15:19;;;;;;;2.67;2.13;;;30.70;55.60;;;;;;4959898;28;20517;-80
2023/08/12 11:17:48;;;;;;;3.22;2.15;;;30.90;55.20;;;;;;4977696;28;20029;-80
2023/08/12 11:20:14;;;;;;;6.28;2.50;;;31.00;55.10;;;;;;4977745;28;20033;-80
2023/08/12 11:22:44;;;;;;;4.55;2.97;;;30.90;55.10;;;;;;4962202;28;20035;-81
2023/08/12 11:25:12;;;;;;;2.88;2.58;;;31.00;54.50;;;;;;4978385;28;20134;-80
2023/08/12 11:27:46;;;;;;;3.25;2.50;;;30.90;54.30;;;;;;4978345;28;20030;-80
2023/08/12 11:30:16;;;;;;;5.80;2.95;;;31.00;55.10;;;;;;4944726;28;20402;-80
2023/08/12 11:32:43;;;;;;;128.88;98.25;;;30.90;53.50;;;;;;4979414;28;20027;-83
2023/08/12 11:35:10;;;;;;;10.10;6.65;;;30.90;53.70;;;;;;4961797;28;20418;-82
2023/08/12 11:37:41;;;;;;;20.42;16.40;;;31.00;54.10;;;;;;4962231;28;20045;-81
2023/08/12 11:40:09;;;;;;;9.50;7.50;;;31.20;55.80;;;;;;4979391;28;20026;-82
2023/08/12 11:42:38;;;;;;;4.10;2.70;;;31.40;54.80;;;;;;4962827;28;20030;-81
2023/08/12 11:45:05;;;;;;;4.28;2.78;;;31.60;53.30;;;;;;4977765;28;20445;-80
2023/08/12 11:47:31;;;;;;;12.23;2.97;;;31.70;53.80;;;;;;4959774;28;20062;-80
2023/08/12 11:49:57;;;;;;;7.28;3.38;;;31.90;52.60;;;;;;4977991;28;20085;-80
2023/08/12 11:52:24;;;;;;;3.22;2.13;;;32.00;51.90;;;;;;4960945;28;20027;-79
2023/08/12 11:54:50;;;;;;;4.55;2.58;;;32.10;53.20;;;;;;4978996;28;20071;-80
2023/08/12 11:57:17;;;;;;;;;;;32.20;52.10;;;;;;4980025;28;20093;-80
2023/08/12 11:59:43;;;;;;;5.38;2.90;;;32.20;51.70;;;;;;4980156;28;19917;-80
2023/08/12 12:02:10;;;;;;;8.35;2.97;;;32.10;52.20;;;;;;4981630;28;20038;-80
2023/08/12 12:04:36;;;;;;;4.85;2.50;;;32.10;51.30;;;;;;4981228;28;20132;-80
2023/08/12 12:07:06;;;;;;;4.57;2.60;;;32.20;52.90;;;;;;4979536;28;20461;-80
2023/08/12 12:09:32;;;;;;;3.70;2.45;;;32.40;52.20;;;;;;4978160;28;20030;-79
2023/08/12 12:11:58;;;;;;;;;;;32.40;53.00;;;;;;4979210;28;20030;-80
2023/08/12 12:14:25;;;;;;;9.38;2.58;;;32.60;52.60;;;;;;4963357;28;19906;-80
2023/08/12 12:16:51;;;;;;;2.95;2.00;;;32.80;52.50;;;;;;4981397;28;20023;-80
2023/08/12 12:19:19;;;;;;;3.25;2.72;;;32.80;52.10;;;;;;4981894;28;20050;-80
2023/08/12 12:21:47;;;;;;;4.40;2.63;;;32.70;51.10;;;;;;4981999;28;20058;-80
2023/08/12 12:24:13;;;;;;;6.35;2.38;;;32.60;51.50;;;;;;4978924;28;20046;-80
2023/08/12 12:26:39;;;;;;;6.35;2.13;;;32.70;52.10;;;;;;4979706;28;20062;-80
2023/08/12 12:29:05;;;;;;;6.15;2.10;;;32.90;52.50;;;;;;4979025;28;20034;-81
2023/08/12 12:31:32;;;;;;;;;;;33.10;51.60;;;;;;4977545;28;20037;-81
2023/08/12 12:33:58;;;;;;;5.13;1.92;;;33.10;51.10;;;;;;4979081;28;19910;-81
2023/08/12 12:36:24;;;;;;;2.42;2.20;;;33.30;51.90;;;;;;4980530;28;20029;-81
2023/08/12 12:38:50;;;;;;;6.43;1.85;;;33.40;51.60;;;;;;4980050;28;20485;-81
2023/08/12 12:41:16;;;;;;;3.33;2.22;;;33.50;51.80;;;;;;4980736;28;20234;-80
2023/08/12 12:43:41;;;;;;;5.30;2.28;;;33.60;51.00;;;;;;4961250;28;20038;-80
2023/08/12 12:46:08;;;;;;;2.63;2.17;;;33.70;51.60;;;;;;4980079;28;20074;-81
2023/08/12 12:48:34;;;;;;;4.97;2.55;;;33.80;51.10;;;;;;4980975;28;20118;-81